Denison, Kansas
Current Conditions -  °F | °C
As of 2:53 AM on Friday 31 Oct 2014 (Local Time) from KTOP Reporting Station
Overcast Overcast  
Wind Chill: 42°   Ceiling: 2600
Heat Index: 49°   Visibility: 10mi
Dew Point: 40°   Wind: 20mph
Humidity: 71%   Direction: 350°N
Pressure: 30.33"   Gusts: 26mph
Location:  39.39°N, 95.63°W
Report Text: KTOP 310753Z AUTO 35017G23KT 10SM OVC026 09/04 A3033 RMK AO2 PK WND 36028/0736 SLP268 T00940044 $
Loading
Personal Weather Stations






























Interactive Weather Map
Tropical Storm Tracking
New forecast layout! Learn more

10-Day Weather Forecast

Advertisements
Track Severe Weather on mobile